sensor_id;sensor_type;location;lat;lon;timestamp;pressure;altitude;pressure_sealevel;temperature;humidity
75089;BME280;63673;49.928;8.150;2023-11-22T00:00:34;997.77;;;3.61;100
75089;BME280;63673;49.928;8.150;2023-11-22T00:01:36;997.8;;;3.59;100
75089;BME280;63673;49.928;8.150;2023-11-22T00:02:38;997.82;;;3.59;100
75089;BME280;63673;49.928;8.150;2023-11-22T00:03:39;997.81;;;3.58;100
75089;BME280;63673;49.928;8.150;2023-11-22T00:04:41;997.85;;;3.57;100
75089;BME280;63673;49.928;8.150;2023-11-22T00:05:43;997.83;;;3.56;100
75089;BME280;63673;49.928;8.150;2023-11-22T00:06:44;997.84;;;3.56;100
75089;BME280;63673;49.928;8.150;2023-11-22T00:07:46;997.9;;;3.55;100
75089;BME280;63673;49.928;8.150;2023-11-22T00:08:48;997.91;;;3.54;100
75089;BME280;63673;49.928;8.150;2023-11-22T00:09:50;997.95;;;3.53;100
75089;BME280;63673;49.928;8.150;2023-11-22T00:10:51;997.88;;;3.53;100
75089;BME280;63673;49.928;8.150;2023-11-22T00:11:53;997.91;;;3.52;100
75089;BME280;63673;49.928;8.150;2023-11-22T00:12:55;997.91;;;3.51;100
75089;BME280;63673;49.928;8.150;2023-11-22T00:13:57;997.88;;;3.5;100
75089;BME280;63673;49.928;8.150;2023-11-22T00:14:58;997.94;;;3.49;100
75089;BME280;63673;49.928;8.150;2023-11-22T00:16:00;997.95;;;3.49;100
75089;BME280;63673;49.928;8.150;2023-11-22T00:17:02;997.9;;;3.48;100
75089;BME280;63673;49.928;8.150;2023-11-22T00:18:04;997.92;;;3.48;100
75089;BME280;63673;49.928;8.150;2023-11-22T00:19:05;997.95;;;3.47;100
75089;BME280;63673;49.928;8.150;2023-11-22T00:20:07;997.95;;;3.46;100
75089;BME280;63673;49.928;8.150;2023-11-22T00:21:09;997.96;;;3.46;100
75089;BME280;63673;49.928;8.150;2023-11-22T00:22:11;997.94;;;3.45;100
75089;BME280;63673;49.928;8.150;2023-11-22T00:23:12;998;;;3.45;100
75089;BME280;63673;49.928;8.150;2023-11-22T00:24:14;998.02;;;3.43;100
75089;BME280;63673;49.928;8.150;2023-11-22T00:25:16;998.02;;;3.43;100
75089;BME280;63673;49.928;8.150;2023-11-22T00:26:17;998.03;;;3.42;100
75089;BME280;63673;49.928;8.150;2023-11-22T00:27:19;998.04;;;3.42;100
75089;BME280;63673;49.928;8.150;2023-11-22T00:28:22;998.05;;;3.42;100
75089;BME280;63673;49.928;8.150;2023-11-22T00:29:24;998.11;;;3.42;100
75089;BME280;63673;49.928;8.150;2023-11-22T00:30:24;998.17;;;3.41;100
75089;BME280;63673;49.928;8.150;2023-11-22T00:31:28;998.13;;;3.42;100
75089;BME280;63673;49.928;8.150;2023-11-22T00:32:28;998.16;;;3.4;100
75089;BME280;63673;49.928;8.150;2023-11-22T00:33:30;998.17;;;3.39;100
75089;BME280;63673;49.928;8.150;2023-11-22T00:34:31;998.13;;;3.39;100
75089;BME280;63673;49.928;8.150;2023-11-22T00:35:33;998.21;;;3.38;100
75089;BME280;63673;49.928;8.150;2023-11-22T00:36:35;998.22;;;3.38;100
75089;BME280;63673;49.928;8.150;2023-11-22T00:47:15;998.24;;;3.27;100
75089;BME280;63673;49.928;8.150;2023-11-22T00:48:29;998.12;;;3.26;100
75089;BME280;63673;49.928;8.150;2023-11-22T00:49:38;998.16;;;3.25;100
75089;BME280;63673;49.928;8.150;2023-11-22T00:50:59;998.09;;;3.22;100
75089;BME280;63673;49.928;8.150;2023-11-22T00:52:01;998.14;;;3.19;100
75089;BME280;63673;49.928;8.150;2023-11-22T00:53:04;998.11;;;3.17;100
75089;BME280;63673;49.928;8.150;2023-11-22T00:54:04;998.18;;;3.15;100
75089;BME280;63673;49.928;8.150;2023-11-22T00:54:42;998.18;;;3.15;100
75089;BME280;63673;49.928;8.150;2023-11-22T00:55:49;998.22;;;3.13;100
75089;BME280;63673;49.928;8.150;2023-11-22T00:56:49;998.19;;;3.11;100
75089;BME280;63673;49.928;8.150;2023-11-22T00:57:51;998.1;;;3.1;100
75089;BME280;63673;49.928;8.150;2023-11-22T00:58:52;998.2;;;3.08;100
75089;BME280;63673;49.928;8.150;2023-11-22T00:59:55;998.07;;;3.06;100
75089;BME280;63673;49.928;8.150;2023-11-22T01:00:56;998.18;;;3.04;100
75089;BME280;63673;49.928;8.150;2023-11-22T01:01:58;998.18;;;3.02;100
75089;BME280;63673;49.928;8.150;2023-11-22T01:02:59;998.23;;;3;100
75089;BME280;63673;49.928;8.150;2023-11-22T01:04:01;998.22;;;2.97;100
75089;BME280;63673;49.928;8.150;2023-11-22T01:05:03;998.28;;;2.94;100
75089;BME280;63673;49.928;8.150;2023-11-22T01:06:05;998.26;;;2.92;100
75089;BME280;63673;49.928;8.150;2023-11-22T01:07:06;998.27;;;2.9;100
75089;BME280;63673;49.928;8.150;2023-11-22T01:08:08;998.3;;;2.88;100
75089;BME280;63673;49.928;8.150;2023-11-22T01:09:10;998.31;;;2.85;100
75089;BME280;63673;49.928;8.150;2023-11-22T01:10:11;998.35;;;2.82;100
75089;BME280;63673;49.928;8.150;2023-11-22T01:11:13;998.38;;;2.81;100
75089;BME280;63673;49.928;8.150;2023-11-22T01:12:15;998.35;;;2.76;100
75089;BME280;63673;49.928;8.150;2023-11-22T01:13:17;998.4;;;2.73;100
75089;BME280;63673;49.928;8.150;2023-11-22T01:14:18;998.43;;;2.71;100
75089;BME280;63673;49.928;8.150;2023-11-22T01:15:20;998.46;;;2.68;100
75089;BME280;63673;49.928;8.150;2023-11-22T01:16:22;998.43;;;2.64;100
75089;BME280;63673;49.928;8.150;2023-11-22T01:17:24;998.44;;;2.6;100
75089;BME280;63673;49.928;8.150;2023-11-22T01:18:25;998.42;;;2.58;100
75089;BME280;63673;49.928;8.150;2023-11-22T01:19:27;998.45;;;2.54;100
75089;BME280;63673;49.928;8.150;2023-11-22T01:20:29;998.48;;;2.52;100
75089;BME280;63673;49.928;8.150;2023-11-22T01:21:30;998.45;;;2.5;100
75089;BME280;63673;49.928;8.150;2023-11-22T01:22:32;998.49;;;2.47;100
75089;BME280;63673;49.928;8.150;2023-11-22T01:23:34;998.49;;;2.46;100
75089;BME280;63673;49.928;8.150;2023-11-22T01:24:36;998.51;;;2.45;100
75089;BME280;63673;49.928;8.150;2023-11-22T01:25:37;998.52;;;2.43;100
75089;BME280;63673;49.928;8.150;2023-11-22T01:26:39;998.56;;;2.42;100
75089;BME280;63673;49.928;8.150;2023-11-22T01:27:41;998.57;;;2.41;100
75089;BME280;63673;49.928;8.150;2023-11-22T01:28:43;998.59;;;2.4;100
75089;BME280;63673;49.928;8.150;2023-11-22T01:29:44;998.58;;;2.38;100
75089;BME280;63673;49.928;8.150;2023-11-22T01:30:46;998.54;;;2.37;100
75089;BME280;63673;49.928;8.150;2023-11-22T01:31:48;998.56;;;2.35;100
75089;BME280;63673;49.928;8.150;2023-11-22T01:32:49;998.6;;;2.35;100
75089;BME280;63673;49.928;8.150;2023-11-22T01:33:51;998.55;;;2.32;100
75089;BME280;63673;49.928;8.150;2023-11-22T01:34:53;998.58;;;2.31;100
75089;BME280;63673;49.928;8.150;2023-11-22T01:35:55;998.63;;;2.28;100
75089;BME280;63673;49.928;8.150;2023-11-22T01:36:56;998.57;;;2.27;100
75089;BME280;63673;49.928;8.150;2023-11-22T01:37:58;998.58;;;2.26;100
75089;BME280;63673;49.928;8.150;2023-11-22T01:39:00;998.62;;;2.26;100
75089;BME280;63673;49.928;8.150;2023-11-22T01:40:02;998.6;;;2.25;100
75089;BME280;63673;49.928;8.150;2023-11-22T01:41:04;998.61;;;2.23;100
75089;BME280;63673;49.928;8.150;2023-11-22T01:42:05;998.6;;;2.22;100
75089;BME280;63673;49.928;8.150;2023-11-22T01:43:07;998.62;;;2.21;100
75089;BME280;63673;49.928;8.150;2023-11-22T01:44:09;998.67;;;2.19;100
75089;BME280;63673;49.928;8.150;2023-11-22T01:45:10;998.67;;;2.18;100
75089;BME280;63673;49.928;8.150;2023-11-22T01:46:15;998.78;;;2.16;100
75089;BME280;63673;49.928;8.150;2023-11-22T01:47:14;998.79;;;2.15;100
75089;BME280;63673;49.928;8.150;2023-11-22T01:48:16;998.74;;;2.13;100
75089;BME280;63673;49.928;8.150;2023-11-22T01:49:18;998.84;;;2.13;100
75089;BME280;63673;49.928;8.150;2023-11-22T01:50:19;998.89;;;2.12;100
75089;BME280;63673;49.928;8.150;2023-11-22T01:51:21;998.86;;;2.11;100
75089;BME280;63673;49.928;8.150;2023-11-22T01:52:22;998.83;;;2.1;100
75089;BME280;63673;49.928;8.150;2023-11-22T01:53:24;998.83;;;2.09;100
75089;BME280;63673;49.928;8.150;2023-11-22T01:54:26;998.88;;;2.09;100
75089;BME280;63673;49.928;8.150;2023-11-22T01:55:28;998.86;;;2.08;100
75089;BME280;63673;49.928;8.150;2023-11-22T01:56:29;998.85;;;2.08;100
75089;BME280;63673;49.928;8.150;2023-11-22T01:57:31;998.82;;;2.07;100
75089;BME280;63673;49.928;8.150;2023-11-22T01:58:33;998.78;;;2.06;100
75089;BME280;63673;49.928;8.150;2023-11-22T01:59:35;998.8;;;2.06;100
75089;BME280;63673;49.928;8.150;2023-11-22T02:00:40;998.83;;;2.04;100
75089;BME280;63673;49.928;8.150;2023-11-22T02:01:38;998.87;;;2.04;100
75089;BME280;63673;49.928;8.150;2023-11-22T02:02:40;998.91;;;2.02;100
75089;BME280;63673;49.928;8.150;2023-11-22T02:03:41;998.88;;;2;100
75089;BME280;63673;49.928;8.150;2023-11-22T02:04:43;998.89;;;1.99;100
75089;BME280;63673;49.928;8.150;2023-11-22T02:05:45;998.89;;;1.99;100
75089;BME280;63673;49.928;8.150;2023-11-22T02:06:47;998.95;;;1.97;100
75089;BME280;63673;49.928;8.150;2023-11-22T02:07:48;998.9;;;1.96;100
75089;BME280;63673;49.928;8.150;2023-11-22T02:08:50;998.96;;;1.94;100
75089;BME280;63673;49.928;8.150;2023-11-22T02:09:52;998.97;;;1.94;100
75089;BME280;63673;49.928;8.150;2023-11-22T02:10:57;998.91;;;1.93;100
75089;BME280;63673;49.928;8.150;2023-11-22T02:11:55;998.97;;;1.92;100
75089;BME280;63673;49.928;8.150;2023-11-22T02:12:57;998.9;;;1.91;100
75089;BME280;63673;49.928;8.150;2023-11-22T02:13:58;998.96;;;1.91;100
75089;BME280;63673;49.928;8.150;2023-11-22T02:22:28;998.92;;;1.91;100
75089;BME280;63673;49.928;8.150;2023-11-22T02:24:01;999.05;;;1.88;100
75089;BME280;63673;49.928;8.150;2023-11-22T02:25:29;999.13;;;1.88;100
75089;BME280;63673;49.928;8.150;2023-11-22T02:26:31;999.11;;;1.87;100
75089;BME280;63673;49.928;8.150;2023-11-22T02:27:33;999.1;;;1.87;100
75089;BME280;63673;49.928;8.150;2023-11-22T02:28:35;999.16;;;1.87;100
75089;BME280;63673;49.928;8.150;2023-11-22T02:29:36;999.17;;;1.87;100
75089;BME280;63673;49.928;8.150;2023-11-22T02:30:38;999.17;;;1.87;100
75089;BME280;63673;49.928;8.150;2023-11-22T02:31:41;999.22;;;1.87;100
75089;BME280;63673;49.928;8.150;2023-11-22T02:32:42;999.27;;;1.86;100
75089;BME280;63673;49.928;8.150;2023-11-22T02:33:43;999.35;;;1.85;100
75089;BME280;63673;49.928;8.150;2023-11-22T02:34:45;999.33;;;1.85;100
75089;BME280;63673;49.928;8.150;2023-11-22T02:35:47;999.35;;;1.85;100
75089;BME280;63673;49.928;8.150;2023-11-22T02:36:49;999.36;;;1.84;100
75089;BME280;63673;49.928;8.150;2023-11-22T02:37:50;999.34;;;1.84;100
75089;BME280;63673;49.928;8.150;2023-11-22T02:38:52;999.26;;;1.85;100
75089;BME280;63673;49.928;8.150;2023-11-22T02:39:55;999.27;;;1.84;100
75089;BME280;63673;49.928;8.150;2023-11-22T02:40:55;999.26;;;1.84;100
75089;BME280;63673;49.928;8.150;2023-11-22T02:41:57;999.3;;;1.84;100
75089;BME280;63673;49.928;8.150;2023-11-22T02:42:59;999.27;;;1.84;100
75089;BME280;63673;49.928;8.150;2023-11-22T02:44:01;999.23;;;1.85;100
75089;BME280;63673;49.928;8.150;2023-11-22T02:45:03;999.25;;;1.85;100
75089;BME280;63673;49.928;8.150;2023-11-22T02:46:04;999.28;;;1.85;100
75089;BME280;63673;49.928;8.150;2023-11-22T02:47:06;999.22;;;1.86;100
75089;BME280;63673;49.928;8.150;2023-11-22T02:48:08;999.14;;;1.86;100
75089;BME280;63673;49.928;8.150;2023-11-22T02:49:09;999.13;;;1.86;100
75089;BME280;63673;49.928;8.150;2023-11-22T02:50:11;999.04;;;1.87;100
75089;BME280;63673;49.928;8.150;2023-11-22T02:51:13;999.06;;;1.87;100
75089;BME280;63673;49.928;8.150;2023-11-22T02:52:15;998.93;;;1.88;100
75089;BME280;63673;49.928;8.150;2023-11-22T02:53:16;999;;;1.87;100
75089;BME280;63673;49.928;8.150;2023-11-22T02:54:18;998.94;;;1.87;100
75089;BME280;63673;49.928;8.150;2023-11-22T02:55:20;998.95;;;1.86;100
75089;BME280;63673;49.928;8.150;2023-11-22T02:56:21;998.97;;;1.87;100
75089;BME280;63673;49.928;8.150;2023-11-22T02:57:23;999.04;;;1.86;100
75089;BME280;63673;49.928;8.150;2023-11-22T02:58:25;999.04;;;1.86;100
75089;BME280;63673;49.928;8.150;2023-11-22T02:59:27;999.05;;;1.86;100
75089;BME280;63673;49.928;8.150;2023-11-22T03:00:28;999.07;;;1.84;100
75089;BME280;63673;49.928;8.150;2023-11-22T03:01:30;999.1;;;1.83;100
75089;BME280;63673;49.928;8.150;2023-11-22T03:02:32;999.08;;;1.82;100
75089;BME280;63673;49.928;8.150;2023-11-22T03:03:34;999.1;;;1.82;100
75089;BME280;63673;49.928;8.150;2023-11-22T03:04:35;999.18;;;1.82;100
75089;BME280;63673;49.928;8.150;2023-11-22T03:05:37;999.15;;;1.81;100
75089;BME280;63673;49.928;8.150;2023-11-22T03:06:39;999.16;;;1.8;100
75089;BME280;63673;49.928;8.150;2023-11-22T03:07:41;999.17;;;1.79;100
75089;BME280;63673;49.928;8.150;2023-11-22T03:08:42;999.26;;;1.79;100
75089;BME280;63673;49.928;8.150;2023-11-22T03:09:44;999.28;;;1.77;100
75089;BME280;63673;49.928;8.150;2023-11-22T03:10:46;999.29;;;1.77;100
75089;BME280;63673;49.928;8.150;2023-11-22T03:11:47;999.32;;;1.77;100
75089;BME280;63673;49.928;8.150;2023-11-22T03:12:49;999.37;;;1.77;100
75089;BME280;63673;49.928;8.150;2023-11-22T03:13:51;999.43;;;1.75;100
75089;BME280;63673;49.928;8.150;2023-11-22T03:14:53;999.46;;;1.75;100
75089;BME280;63673;49.928;8.150;2023-11-22T03:15:54;999.49;;;1.74;100
75089;BME280;63673;49.928;8.150;2023-11-22T03:16:56;999.49;;;1.73;100
75089;BME280;63673;49.928;8.150;2023-11-22T03:17:58;999.48;;;1.72;100
75089;BME280;63673;49.928;8.150;2023-11-22T03:19:00;999.51;;;1.7;100
75089;BME280;63673;49.928;8.150;2023-11-22T03:20:01;999.47;;;1.71;100
75089;BME280;63673;49.928;8.150;2023-11-22T03:21:03;999.54;;;1.69;100
75089;BME280;63673;49.928;8.150;2023-11-22T03:22:05;999.58;;;1.68;100
75089;BME280;63673;49.928;8.150;2023-11-22T03:23:07;999.6;;;1.66;100
75089;BME280;63673;49.928;8.150;2023-11-22T03:24:08;999.64;;;1.64;100
75089;BME280;63673;49.928;8.150;2023-11-22T03:25:10;999.62;;;1.63;100
75089;BME280;63673;49.928;8.150;2023-11-22T03:26:12;999.61;;;1.61;100
75089;BME280;63673;49.928;8.150;2023-11-22T03:27:13;999.6;;;1.59;100
75089;BME280;63673;49.928;8.150;2023-11-22T03:28:15;999.56;;;1.58;100
75089;BME280;63673;49.928;8.150;2023-11-22T03:29:17;999.56;;;1.57;100
75089;BME280;63673;49.928;8.150;2023-11-22T03:30:19;999.55;;;1.54;100
75089;BME280;63673;49.928;8.150;2023-11-22T03:31:20;999.6;;;1.52;100
75089;BME280;63673;49.928;8.150;2023-11-22T03:32:22;999.62;;;1.49;100
75089;BME280;63673;49.928;8.150;2023-11-22T03:33:24;999.61;;;1.49;100
75089;BME280;63673;49.928;8.150;2023-11-22T03:34:26;999.61;;;1.47;100
75089;BME280;63673;49.928;8.150;2023-11-22T03:35:27;999.63;;;1.44;100
75089;BME280;63673;49.928;8.150;2023-11-22T03:36:29;999.63;;;1.43;100
75089;BME280;63673;49.928;8.150;2023-11-22T03:37:31;999.61;;;1.41;100
75089;BME280;63673;49.928;8.150;2023-11-22T03:38:33;999.66;;;1.38;100
75089;BME280;63673;49.928;8.150;2023-11-22T03:39:34;999.6;;;1.37;100
75089;BME280;63673;49.928;8.150;2023-11-22T03:40:36;999.69;;;1.34;100
75089;BME280;63673;49.928;8.150;2023-11-22T03:41:38;999.67;;;1.32;100
75089;BME280;63673;49.928;8.150;2023-11-22T03:42:40;999.68;;;1.29;100
75089;BME280;63673;49.928;8.150;2023-11-22T03:43:41;999.7;;;1.28;100
75089;BME280;63673;49.928;8.150;2023-11-22T03:44:43;999.69;;;1.24;100
75089;BME280;63673;49.928;8.150;2023-11-22T03:45:45;999.72;;;1.21;100
75089;BME280;63673;49.928;8.150;2023-11-22T03:46:46;999.78;;;1.19;100
75089;BME280;63673;49.928;8.150;2023-11-22T03:47:48;999.78;;;1.16;100
75089;BME280;63673;49.928;8.150;2023-11-22T03:48:50;999.81;;;1.14;100
75089;BME280;63673;49.928;8.150;2023-11-22T03:49:52;999.87;;;1.12;100
75089;BME280;63673;49.928;8.150;2023-11-22T03:50:53;999.92;;;1.1;100
75089;BME280;63673;49.928;8.150;2023-11-22T03:51:55;999.9;;;1.08;100
75089;BME280;63673;49.928;8.150;2023-11-22T03:52:57;999.93;;;1.05;100
75089;BME280;63673;49.928;8.150;2023-11-22T03:53:59;999.99;;;1.03;100
75089;BME280;63673;49.928;8.150;2023-11-22T03:55:00;999.93;;;1;100
75089;BME280;63673;49.928;8.150;2023-11-22T03:56:03;999.92;;;0.98;100
75089;BME280;63673;49.928;8.150;2023-11-22T03:57:04;999.95;;;0.97;100
75089;BME280;63673;49.928;8.150;2023-11-22T03:58:05;999.97;;;0.96;100
75089;BME280;63673;49.928;8.150;2023-11-22T03:59:07;999.91;;;0.94;100
75089;BME280;63673;49.928;8.150;2023-11-22T04:00:09;999.98;;;0.92;100
75089;BME280;63673;49.928;8.150;2023-11-22T04:01:11;999.97;;;0.9;100
75089;BME280;63673;49.928;8.150;2023-11-22T04:02:12;1000.02;;;0.88;100
75089;BME280;63673;49.928;8.150;2023-11-22T04:03:14;1000.08;;;0.87;100
75089;BME280;63673;49.928;8.150;2023-11-22T04:04:16;1000.08;;;0.85;100
75089;BME280;63673;49.928;8.150;2023-11-22T04:05:18;1000.1;;;0.86;100
75089;BME280;63673;49.928;8.150;2023-11-22T04:06:19;1000.11;;;0.84;100
75089;BME280;63673;49.928;8.150;2023-11-22T04:07:21;1000.12;;;0.83;100
75089;BME280;63673;49.928;8.150;2023-11-22T04:08:23;1000.15;;;0.82;100
75089;BME280;63673;49.928;8.150;2023-11-22T04:09:25;1000.2;;;0.8;100
75089;BME280;63673;49.928;8.150;2023-11-22T04:10:27;1000.22;;;0.77;100
75089;BME280;63673;49.928;8.150;2023-11-22T04:11:28;1000.24;;;0.76;100
75089;BME280;63673;49.928;8.150;2023-11-22T04:12:30;1000.28;;;0.74;100
75089;BME280;63673;49.928;8.150;2023-11-22T04:13:31;1000.35;;;0.72;100
75089;BME280;63673;49.928;8.150;2023-11-22T04:14:33;1000.37;;;0.69;100
75089;BME280;63673;49.928;8.150;2023-11-22T04:15:35;1000.34;;;0.67;100
75089;BME280;63673;49.928;8.150;2023-11-22T04:16:37;1000.35;;;0.65;100
75089;BME280;63673;49.928;8.150;2023-11-22T04:17:38;1000.32;;;0.63;100
75089;BME280;63673;49.928;8.150;2023-11-22T04:18:41;1000.37;;;0.6;100
75089;BME280;63673;49.928;8.150;2023-11-22T04:19:42;1000.33;;;0.6;100
75089;BME280;63673;49.928;8.150;2023-11-22T04:20:44;1000.36;;;0.55;100
75089;BME280;63673;49.928;8.150;2023-11-22T04:21:45;1000.37;;;0.53;100
75089;BME280;63673;49.928;8.150;2023-11-22T04:22:47;1000.35;;;0.52;100
75089;BME280;63673;49.928;8.150;2023-11-22T04:23:49;1000.36;;;0.5;100
75089;BME280;63673;49.928;8.150;2023-11-22T04:24:50;1000.4;;;0.48;100
75089;BME280;63673;49.928;8.150;2023-11-22T04:25:52;1000.42;;;0.48;100
75089;BME280;63673;49.928;8.150;2023-11-22T04:26:54;1000.4;;;0.46;100
75089;BME280;63673;49.928;8.150;2023-11-22T04:27:56;1000.45;;;0.45;100
75089;BME280;63673;49.928;8.150;2023-11-22T04:28:57;1000.45;;;0.43;100
75089;BME280;63673;49.928;8.150;2023-11-22T04:29:59;1000.42;;;0.44;100
75089;BME280;63673;49.928;8.150;2023-11-22T04:31:01;1000.45;;;0.45;100
75089;BME280;63673;49.928;8.150;2023-11-22T04:32:03;1000.39;;;0.46;100
75089;BME280;63673;49.928;8.150;2023-11-22T04:33:04;1000.42;;;0.48;100
75089;BME280;63673;49.928;8.150;2023-11-22T04:34:06;1000.42;;;0.49;100
75089;BME280;63673;49.928;8.150;2023-11-22T04:35:08;1000.46;;;0.52;100
75089;BME280;63673;49.928;8.150;2023-11-22T04:36:10;1000.48;;;0.53;100
75089;BME280;63673;49.928;8.150;2023-11-22T04:37:11;1000.43;;;0.54;100
75089;BME280;63673;49.928;8.150;2023-11-22T04:38:13;1000.36;;;0.56;100
75089;BME280;63673;49.928;8.150;2023-11-22T04:39:15;1000.4;;;0.58;100
75089;BME280;63673;49.928;8.150;2023-11-22T04:40:16;1000.43;;;0.6;100
75089;BME280;63673;49.928;8.150;2023-11-22T04:41:18;1000.4;;;0.61;100
75089;BME280;63673;49.928;8.150;2023-11-22T04:42:20;1000.39;;;0.62;100
75089;BME280;63673;49.928;8.150;2023-11-22T04:43:22;1000.37;;;0.63;100
75089;BME280;63673;49.928;8.150;2023-11-22T04:44:23;1000.42;;;0.63;100
75089;BME280;63673;49.928;8.150;2023-11-22T04:45:25;1000.46;;;0.64;100
75089;BME280;63673;49.928;8.150;2023-11-22T04:46:27;1000.5;;;0.66;100
75089;BME280;63673;49.928;8.150;2023-11-22T04:47:29;1000.48;;;0.68;100
75089;BME280;63673;49.928;8.150;2023-11-22T04:48:30;1000.49;;;0.69;100
75089;BME280;63673;49.928;8.150;2023-11-22T04:49:32;1000.53;;;0.7;100
75089;BME280;63673;49.928;8.150;2023-11-22T04:50:34;1000.54;;;0.7;100
75089;BME280;63673;49.928;8.150;2023-11-22T04:51:36;1000.6;;;0.72;100
75089;BME280;63673;49.928;8.150;2023-11-22T04:52:37;1000.61;;;0.73;100
75089;BME280;63673;49.928;8.150;2023-11-22T04:53:39;1000.55;;;0.74;100
75089;BME280;63673;49.928;8.150;2023-11-22T04:54:41;1000.63;;;0.73;100
75089;BME280;63673;49.928;8.150;2023-11-22T04:55:42;1000.63;;;0.73;100
75089;BME280;63673;49.928;8.150;2023-11-22T04:56:44;1000.63;;;0.74;100
75089;BME280;63673;49.928;8.150;2023-11-22T04:57:46;1000.62;;;0.75;100
75089;BME280;63673;49.928;8.150;2023-11-22T04:58:48;1000.67;;;0.74;100
75089;BME280;63673;49.928;8.150;2023-11-22T04:59:49;1000.69;;;0.75;100
75089;BME280;63673;49.928;8.150;2023-11-22T05:00:51;1000.71;;;0.76;100
75089;BME280;63673;49.928;8.150;2023-11-22T05:01:53;1000.66;;;0.76;100
75089;BME280;63673;49.928;8.150;2023-11-22T05:02:55;1000.67;;;0.77;100
75089;BME280;63673;49.928;8.150;2023-11-22T05:03:56;1000.61;;;0.77;100
75089;BME280;63673;49.928;8.150;2023-11-22T05:04:58;1000.69;;;0.77;100
75089;BME280;63673;49.928;8.150;2023-11-22T05:06:00;1000.72;;;0.77;100
75089;BME280;63673;49.928;8.150;2023-11-22T05:07:02;1000.73;;;0.76;100
75089;BME280;63673;49.928;8.150;2023-11-22T05:08:04;1000.75;;;0.76;100
75089;BME280;63673;49.928;8.150;2023-11-22T05:09:05;1000.75;;;0.75;100
75089;BME280;63673;49.928;8.150;2023-11-22T05:10:07;1000.79;;;0.75;100
75089;BME280;63673;49.928;8.150;2023-11-22T05:11:09;1000.76;;;0.73;100
75089;BME280;63673;49.928;8.150;2023-11-22T05:12:10;1000.69;;;0.72;100
75089;BME280;63673;49.928;8.150;2023-11-22T05:13:12;1000.68;;;0.71;100
75089;BME280;63673;49.928;8.150;2023-11-22T05:14:14;1000.72;;;0.71;100
75089;BME280;63673;49.928;8.150;2023-11-22T05:15:15;1000.75;;;0.7;100
75089;BME280;63673;49.928;8.150;2023-11-22T05:16:17;1000.78;;;0.69;100
75089;BME280;63673;49.928;8.150;2023-11-22T05:17:19;1000.75;;;0.67;100
75089;BME280;63673;49.928;8.150;2023-11-22T05:18:21;1000.76;;;0.68;100
75089;BME280;63673;49.928;8.150;2023-11-22T05:19:22;1000.75;;;0.68;100
75089;BME280;63673;49.928;8.150;2023-11-22T05:20:24;1000.79;;;0.68;100
75089;BME280;63673;49.928;8.150;2023-11-22T05:21:26;1000.81;;;0.67;100
75089;BME280;63673;49.928;8.150;2023-11-22T05:22:28;1000.82;;;0.69;100
75089;BME280;63673;49.928;8.150;2023-11-22T05:23:29;1000.88;;;0.7;100
75089;BME280;63673;49.928;8.150;2023-11-22T05:24:31;1000.88;;;0.69;100
75089;BME280;63673;49.928;8.150;2023-11-22T05:25:33;1000.9;;;0.69;100
75089;BME280;63673;49.928;8.150;2023-11-22T05:26:35;1000.89;;;0.71;100
75089;BME280;63673;49.928;8.150;2023-11-22T05:27:36;1000.8;;;0.7;100
75089;BME280;63673;49.928;8.150;2023-11-22T05:28:38;1000.87;;;0.71;100
75089;BME280;63673;49.928;8.150;2023-11-22T05:29:40;1000.85;;;0.71;100
75089;BME280;63673;49.928;8.150;2023-11-22T05:30:41;1000.84;;;0.71;100
75089;BME280;63673;49.928;8.150;2023-11-22T05:31:44;1000.82;;;0.71;100
75089;BME280;63673;49.928;8.150;2023-11-22T05:32:45;1000.88;;;0.71;100
75089;BME280;63673;49.928;8.150;2023-11-22T05:33:47;1000.89;;;0.71;100
75089;BME280;63673;49.928;8.150;2023-11-22T05:34:48;1000.91;;;0.7;100
75089;BME280;63673;49.928;8.150;2023-11-22T05:35:50;1000.95;;;0.7;100
75089;BME280;63673;49.928;8.150;2023-11-22T05:36:52;1000.94;;;0.68;100
75089;BME280;63673;49.928;8.150;2023-11-22T05:37:54;1000.9;;;0.67;100
75089;BME280;63673;49.928;8.150;2023-11-22T05:38:55;1000.9;;;0.65;100
75089;BME280;63673;49.928;8.150;2023-11-22T05:39:57;1000.89;;;0.65;100
75089;BME280;63673;49.928;8.150;2023-11-22T05:40:59;1000.89;;;0.63;100
75089;BME280;63673;49.928;8.150;2023-11-22T05:42:01;1000.93;;;0.6;100
75089;BME280;63673;49.928;8.150;2023-11-22T05:43:02;1000.88;;;0.58;100
75089;BME280;63673;49.928;8.150;2023-11-22T05:44:04;1000.91;;;0.56;100
75089;BME280;63673;49.928;8.150;2023-11-22T05:45:06;1000.9;;;0.54;100
75089;BME280;63673;49.928;8.150;2023-11-22T05:46:08;1000.91;;;0.52;100
75089;BME280;63673;49.928;8.150;2023-11-22T05:47:09;1000.91;;;0.51;100
75089;BME280;63673;49.928;8.150;2023-11-22T05:48:11;1000.96;;;0.48;100
75089;BME280;63673;49.928;8.150;2023-11-22T05:49:13;1000.99;;;0.47;100
75089;BME280;63673;49.928;8.150;2023-11-22T05:50:14;1001;;;0.45;100
75089;BME280;63673;49.928;8.150;2023-11-22T05:51:16;1001.06;;;0.43;100
75089;BME280;63673;49.928;8.150;2023-11-22T05:52:18;1001.04;;;0.41;100
75089;BME280;63673;49.928;8.150;2023-11-22T05:53:20;1001.12;;;0.4;100
75089;BME280;63673;49.928;8.150;2023-11-22T05:54:21;1001.12;;;0.38;100
75089;BME280;63673;49.928;8.150;2023-11-22T05:55:23;1001.11;;;0.37;100
75089;BME280;63673;49.928;8.150;2023-11-22T05:56:25;1001.12;;;0.35;100
75089;BME280;63673;49.928;8.150;2023-11-22T05:57:27;1001.12;;;0.34;100
75089;BME280;63673;49.928;8.150;2023-11-22T05:58:28;1001.13;;;0.32;100
75089;BME280;63673;49.928;8.150;2023-11-22T05:59:30;1001.2;;;0.31;100
75089;BME280;63673;49.928;8.150;2023-11-22T06:00:32;1001.23;;;0.3;100
75089;BME280;63673;49.928;8.150;2023-11-22T06:01:33;1001.28;;;0.28;100
75089;BME280;63673;49.928;8.150;2023-11-22T06:02:35;1001.28;;;0.27;100
75089;BME280;63673;49.928;8.150;2023-11-22T06:03:37;1001.34;;;0.26;100
75089;BME280;63673;49.928;8.150;2023-11-22T06:04:39;1001.36;;;0.24;100
75089;BME280;63673;49.928;8.150;2023-11-22T06:05:40;1001.33;;;0.24;100
75089;BME280;63673;49.928;8.150;2023-11-22T06:06:42;1001.35;;;0.21;100
75089;BME280;63673;49.928;8.150;2023-11-22T06:07:44;1001.35;;;0.2;100